Maasdam — PFRO — position and weather

sailwx.info

Track history (hours):
 
Tides and Currents Weather Stations Pressure Air Temp Water Temp Dewpoint Dewpoint Depression Visibility Wind Speed Wind Dir Waves Ship Positions

Maasdam

Operator: Holland America Line

Last reported at 2018-Dec-12 12:40 UTC. Time now 2018-Dec-12 13:51 UTC.
Position S 39°50' E 173°49'.

MMSI: 244958000.

Date/timePositionNaut miles runAvg speedWind from/ knotsBaromVisibWave heightAir tempDewpointWater temp
2018-Dec-12 12:40S 39°50' E 173°49'316.9
2018-Dec-12 12:31S 39°53' E 173°50'917.1
2018-Dec-12 12:00S 40°00' E 173°55'917.1
2018-Dec-12 11:31S 40°08' E 173°59'917.2
2018-Dec-12 11:01S 40°16' E 174°04'917.4
2018-Dec-12 10:31S 40°24' E 174°09'917.2
2018-Dec-12 10:01S 40°32' E 174°13'917.5
2018-Dec-12 09:31S 40°40' E 174°18'917.4
2018-Dec-12 09:01S 40°48' E 174°23'157.4
2018-Dec-12 09:00S 40°48' E 174°24'815.9 300 / 91013.110.8 16.714.320.0
2018-Dec-12 08:31S 40°55' E 174°27'816.9
2018-Dec-12 08:01S 41°03' E 174°32'815.5
2018-Dec-12 07:31S 41°11' E 174°33'816.6
2018-Dec-12 07:01S 41°19' E 174°33'714.6
2018-Dec-12 06:30S 41°24' E 174°39'612.7
2018-Dec-12 06:01S 41°26' E 174°48'712.0
2018-Dec-12 05:26S 41°19' E 174°51'4 8.5
2018-Dec-12 04:57S 41°16' E 174°48'0 0.0
2018-Dec-11 19:22S 41°16' E 174°47'3 7.4
2018-Dec-11 19:01S 41°17' E 174°51'713.3
2018-Dec-11 18:30S 41°23' E 174°49'4 7.6
2018-Dec-11 18:00S 41°27' E 174°49'713.7
2018-Dec-11 17:30S 41°32' E 174°55'713.3
2018-Dec-11 17:00S 41°36' E 175°02'713.6
2018-Dec-11 16:30S 41°41' E 175°09'714.0
2018-Dec-11 16:00S 41°42' E 175°18'179 8.5
2018-Dec-10 19:00S 39°24' E 177°48'3819.0 120 / 81015.6 5.4 16.314.420.0
2018-Dec-10 17:00S 38°54' E 178°18'4315.9 140 / 101014.8 5.4 17.215.320.0
2018-Dec-10 14:17S 38°13' E 178°35'1317.7
2018-Dec-10 13:33S 38°00' E 178°37'3715.3
2018-Dec-10 11:06S 37°26' E 178°17'219.1
2018-Dec-10 11:00S 37°26' E 178°15'1219.8
2018-Dec-10 10:25S 37°25' E 178°00'1023.6
2018-Dec-10 10:00S 37°24' E 177°48'1 8.0 070 / 221013.910.8 18.515.723.0
2018-Dec-10 09:53S 37°25' E 177°48'719.1
2018-Dec-10 09:30S 37°25' E 177°38'1019.1
2018-Dec-10 09:00S 37°24' E 177°27'918.7
2018-Dec-10 08:30S 37°23' E 177°15'918.5
2018-Dec-10 08:00S 37°23' E 177°03'1019.0
2018-Dec-10 07:30S 37°25' E 176°51'1019.3
2018-Dec-10 07:00S 37°27' E 176°39'918.9
2018-Dec-10 06:30S 37°29' E 176°28'918.0
2018-Dec-10 06:00S 37°32' E 176°17'714.1
2018-Dec-10 05:30S 37°37' E 176°11'2 3.6
2018-Dec-10 04:58S 37°39' E 176°11'0 0.0
2018-Dec-10 04:28S 37°39' E 176°11'0 0.0
2018-Dec-10 03:58S 37°39' E 176°11'0 0.0
2018-Dec-10 03:28S 37°39' E 176°11'0 0.0
2018-Dec-10 02:28S 37°39' E 176°11'0 0.0
2018-Dec-10 01:58S 37°39' E 176°11'0 0.0
2018-Dec-10 01:28S 37°39' E 176°11'0 0.0
2018-Dec-10 00:58S 37°39' E 176°11'0 0.0
2018-Dec-10 00:28S 37°39' E 176°11'0 0.0
2018-Dec-09 23:58S 37°39' E 176°11'0 0.0
2018-Dec-09 23:28S 37°39' E 176°11'0 0.0
2018-Dec-09 22:58S 37°39' E 176°11'0 0.0
2018-Dec-09 22:28S 37°39' E 176°11'0 0.0
2018-Dec-09 21:58S 37°39' E 176°11'0 0.0
2018-Dec-09 21:28S 37°39' E 176°11'0 0.0
2018-Dec-09 20:58S 37°39' E 176°11'0 0.0
2018-Dec-09 20:28S 37°39' E 176°11'0 0.0
2018-Dec-09 19:58S 37°39' E 176°11'0 0.0
2018-Dec-09 19:28S 37°39' E 176°11'0 0.0
2018-Dec-09 18:58S 37°39' E 176°11'0 0.0
2018-Dec-09 18:28S 37°39' E 176°11'0 0.0
2018-Dec-09 17:58S 37°39' E 176°11'0 0.0
2018-Dec-09 17:28S 37°39' E 176°11'0 0.0
2018-Dec-09 16:58S 37°39' E 176°11'0 0.0
2018-Dec-09 16:28S 37°39' E 176°11'0 0.0
2018-Dec-09 15:58S 37°39' E 176°11'0 0.0
2018-Dec-09 15:28S 37°39' E 176°11'0 0.0
2018-Dec-09 14:58S 37°39' E 176°11'0 0.0
2018-Dec-09 14:28S 37°39' E 176°11'0 0.0
2018-Dec-09 13:58S 37°39' E 176°11'0 0.0
2018-Dec-09 13:28S 37°39' E 176°11'0 0.0
2018-Dec-09 12:58S 37°39' E 176°11'0 0.0
2018-Dec-09 12:28S 37°39' E 176°11'0 0.0
2018-Dec-09 11:58S 37°39' E 176°11'0 0.0
2018-Dec-09 11:28S 37°39' E 176°11'0 0.0
2018-Dec-09 10:58S 37°39' E 176°11'0 0.0
2018-Dec-09 10:28S 37°39' E 176°11'0 0.0
2018-Dec-09 09:58S 37°39' E 176°11'0 0.0
2018-Dec-09 09:28S 37°39' E 176°11'0 0.0
2018-Dec-09 08:58S 37°39' E 176°11'0 0.0
2018-Dec-09 08:28S 37°39' E 176°11'0 0.0
2018-Dec-09 07:58S 37°39' E 176°11'0 0.0
2018-Dec-09 07:28S 37°39' E 176°11'0 0.0
2018-Dec-09 06:58S 37°39' E 176°11'0 0.0
2018-Dec-09 06:28S 37°39' E 176°11'0 0.0
2018-Dec-09 05:58S 37°39' E 176°11'0 0.0
2018-Dec-09 05:28S 37°39' E 176°11'0 0.0
2018-Dec-09 04:58S 37°39' E 176°11'0 0.0
2018-Dec-09 04:28S 37°39' E 176°11'0 0.0
2018-Dec-09 03:58S 37°39' E 176°11'0 0.0
2018-Dec-09 03:31S 37°39' E 176°11'0 0.0
2018-Dec-09 03:01S 37°39' E 176°11'0 0.0
2018-Dec-09 02:30S 37°39' E 176°11'0 0.0
2018-Dec-09 02:00S 37°39' E 176°11'0 0.0
2018-Dec-09 01:31S 37°39' E 176°11'0 0.0
2018-Dec-09 01:01S 37°39' E 176°11'0 0.0
2018-Dec-09 00:31S 37°39' E 176°11'0 0.0
2018-Dec-09 00:01S 37°39' E 176°11'0 0.0
2018-Dec-08 23:31S 37°39' E 176°11'0 0.0
2018-Dec-08 23:01S 37°39' E 176°11'0 0.0
2018-Dec-08 22:31S 37°39' E 176°11'0 0.0
2018-Dec-08 22:01S 37°39' E 176°11'0 0.0
2018-Dec-08 21:31S 37°39' E 176°11'0 0.0
2018-Dec-08 21:01S 37°39' E 176°11'0 0.0
2018-Dec-08 20:31S 37°39' E 176°11'0 0.0
2018-Dec-08 20:00S 37°39' E 176°11'0 0.0
2018-Dec-08 19:31S 37°39' E 176°11'0 0.0
2018-Dec-08 19:00S 37°39' E 176°11'0 0.0
2018-Dec-08 18:30S 37°39' E 176°11'0 0.0
2018-Dec-08 18:01S 37°39' E 176°11'0 0.0
2018-Dec-08 17:30S 37°39' E 176°11'0 0.0
2018-Dec-08 17:01S 37°39' E 176°11'0 0.0
2018-Dec-08 16:30S 37°39' E 176°11'0 0.1
2018-Dec-08 16:01S 37°39' E 176°11'3 5.7
2018-Dec-08 15:31S 37°36' E 176°11'4 8.1
2018-Dec-08 15:00S 37°32' E 176°12'714.5
2018-Dec-08 14:30S 37°24' E 176°11'714.7
2018-Dec-08 14:00S 37°17' E 176°11'714.4
2018-Dec-08 13:30S 37°10' E 176°12'814.8
2018-Dec-08 13:00S 37°02' E 176°12'814.7
2018-Dec-08 12:29S 36°55' E 176°12'714.7
2018-Dec-08 11:59S 36°48' E 176°09'714.6
2018-Dec-08 11:29S 36°41' E 176°06'714.6
2018-Dec-08 11:00S 36°35' E 176°02'814.5
2018-Dec-08 10:26S 36°31' E 175°53'1315.5
2018-Dec-08 09:36S 36°27' E 175°38'1119.1
2018-Dec-08 09:00S 36°24' E 175°24'2010.1 230 / 281020.210.8 17.312.822.0
2018-Dec-08 07:00S 36°30' E 175°00'520.2 200 / 181021.110.8 18.513.122.0
2018-Dec-08 06:46S 36°33' E 175°04'3 9.8
2018-Dec-08 06:30S 36°34' E 175°02'5 9.8
2018-Dec-08 06:00S 36°37' E 174°57'9 9.8
2018-Dec-08 05:02S 36°45' E 174°50'013.8
2018-Dec-08 05:01S 36°45' E 174°50'510.2
2018-Dec-08 04:31S 36°50' E 174°48'2 2.9
2018-Dec-08 03:58S 36°51' E 174°46'0 0.0
2018-Dec-08 03:28S 36°51' E 174°46'0 0.0
2018-Dec-08 02:58S 36°51' E 174°46'0 0.0
2018-Dec-08 02:28S 36°51' E 174°46'0 0.0
2018-Dec-08 01:58S 36°51' E 174°46'0 0.0
2018-Dec-08 01:28S 36°51' E 174°46'0 0.0
2018-Dec-08 00:58S 36°51' E 174°46'0 0.0
2018-Dec-08 00:28S 36°51' E 174°46'0 0.0
2018-Dec-07 23:58S 36°51' E 174°46'0 0.0
2018-Dec-07 23:28S 36°51' E 174°46'0 0.0
2018-Dec-07 22:58S 36°51' E 174°46'0 0.0
2018-Dec-07 22:28S 36°51' E 174°46'0 0.0
2018-Dec-07 21:58S 36°51' E 174°46'0 0.0
2018-Dec-07 21:28S 36°51' E 174°46'0 0.0
2018-Dec-07 20:58S 36°51' E 174°46'0 0.0
2018-Dec-07 20:22S 36°51' E 174°46'0 0.0
2018-Dec-07 19:58S 36°51' E 174°46'0 0.0
2018-Dec-07 19:28S 36°51' E 174°46'0 0.0
2018-Dec-07 18:58S 36°51' E 174°46'0 0.0
2018-Dec-07 18:28S 36°51' E 174°46'0 0.0
2018-Dec-07 17:58S 36°51' E 174°46'0 0.0
2018-Dec-07 17:30S 36°51' E 174°46'2 3.9
2018-Dec-07 17:00S 36°50' E 174°49'711.1
2018-Dec-07 16:21S 36°43' E 174°52'10 7.8
2018-Dec-07 15:03S 36°36' E 174°60'1 7.5
2018-Dec-07 14:58S 36°35' E 175°00'68 6.8
2018-Dec-07 05:00S 36°48' E 176°24'920.7 010 / 51020.110.8 17.0 5.620.0
2018-Dec-07 04:33S 36°55' E 176°31'3 8.3
2018-Dec-07 04:09S 36°57' E 176°34'1 8.3
2018-Dec-07 04:00S 36°58' E 176°35'6422.6
2018-Dec-07 04:00S 36°54' E 176°30'1415.2 030 / 21020.310.8 17.0 5.620.0
2018-Dec-07 03:06S 37°03' E 176°42'5 8.3
2018-Dec-07 02:30S 37°07' E 176°47'4 8.4
2018-Dec-07 02:01S 37°09' E 176°51'4 8.4
2018-Dec-07 01:30S 37°12' E 176°55'4 8.4
2018-Dec-07 01:00S 37°15' E 176°58'4 8.4
2018-Dec-07 00:30S 37°18' E 177°02'4 8.6
2018-Dec-07 00:00S 37°21' E 177°06'4 8.6
2018-Dec-06 23:30S 37°24' E 177°10'4 8.5
2018-Dec-06 23:00S 37°28' E 177°13'4 9.0
2018-Dec-06 22:31S 37°32' E 177°14'4 8.0
2018-Dec-06 22:01S 37°32' E 177°19'4 8.3
2018-Dec-06 21:31S 37°31' E 177°24'4 8.4
2018-Dec-06 21:01S 37°30' E 177°29'4 8.6
2018-Dec-06 20:30S 37°30' E 177°34'4 8.7
2018-Dec-06 20:01S 37°29' E 177°40'4 8.6
2018-Dec-06 19:30S 37°28' E 177°45'5 9.3
2018-Dec-06 19:00S 37°24' E 177°48'518.6 200 / 151017.010.8 16.214.420.0
2018-Dec-06 18:42S 37°27' E 177°54'2 8.1
2018-Dec-06 18:30S 37°27' E 177°56'3 6.2
2018-Dec-06 18:00S 37°24' E 177°54'778.2 200 / 151016.4 17.215.920.0
2018-Dec-06 17:54S 37°26' E 178°02'3 8.2
2018-Dec-06 17:30S 37°26' E 178°06'5 7.6
2018-Dec-06 16:47S 37°26' E 178°13'2 7.1
2018-Dec-06 16:30S 37°26' E 178°15'41 7.6
2018-Dec-06 11:07S 38°01' E 178°43'13 8.3
2018-Dec-06 09:35S 38°13' E 178°40'39 8.5
2018-Dec-06 05:00S 38°42' E 178°06'6 0.5 260 / 151009.510.8 18.011.218.0
2018-Dec-05 17:00S 38°48' E 178°06'15 7.6 330 / 201008.010.8 16.314.220.0
2018-Dec-05 15:00S 39°00' E 178°18'19 9.3 290 / 271006.910.8 16.012.719.0
2018-Dec-05 13:00S 39°18' E 178°12'1818.4 290 / 351006.810.8 18.014.819.0
2018-Dec-05 12:00S 39°30' E 177°54'156 5.6 310 / 241007.010.8 19.015.918.0
2018-Dec-04 08:00S 41°30' E 175°42'1716.4 320 / 48995.610.8 17.4 9.118.0
2018-Dec-04 06:59S 41°40' E 175°24'817.5
2018-Dec-04 06:30S 41°42' E 175°13'816.8
2018-Dec-04 06:00S 41°37' E 175°04'917.9
2018-Dec-04 05:30S 41°31' E 174°55'816.4
2018-Dec-04 05:00S 41°25' E 174°48'150.5
2018-Dec-04 05:00S 41°24' E 174°48'712.1 020 / 27997.310.8 18.011.316.0
2018-Dec-04 04:27S 41°18' E 174°51'3 7.4
2018-Dec-04 04:00S 41°16' E 174°47'0 0.0
2018-Dec-04 03:28S 41°16' E 174°47'0 0.0
2018-Dec-04 02:55S 41°16' E 174°47'0 0.0
2018-Dec-04 02:28S 41°16' E 174°47'0 0.0
2018-Dec-04 01:58S 41°16' E 174°47'0 0.0
2018-Dec-04 01:28S 41°16' E 174°47'0 0.0
2018-Dec-04 00:55S 41°16' E 174°47'0 0.0
2018-Dec-04 00:22S 41°16' E 174°47'0 0.0
2018-Dec-03 23:58S 41°16' E 174°47'0 0.0
2018-Dec-03 23:28S 41°16' E 174°47'0 0.0
2018-Dec-03 22:43S 41°16' E 174°47'0 0.0
2018-Dec-03 22:28S 41°16' E 174°47'0 0.0
2018-Dec-03 21:52S 41°16' E 174°47'0 0.0
2018-Dec-03 21:28S 41°16' E 174°47'0 0.0
2018-Dec-03 20:52S 41°16' E 174°47'0 0.0
2018-Dec-03 20:28S 41°16' E 174°47'0 0.0
2018-Dec-03 19:58S 41°16' E 174°47'0 0.0
2018-Dec-03 19:28S 41°16' E 174°47'0 0.0
2018-Dec-03 18:58S 41°16' E 174°47'0 0.2
2018-Dec-03 18:30S 41°16' E 174°47'6 7.4
2018-Dec-03 17:39S 41°22' E 174°50'211.9
2018-Dec-03 17:30S 41°23' E 174°49'510.8
2018-Dec-03 17:01S 41°29' E 174°47'6356.4
2018-Dec-03 17:00S 41°24' E 174°42'1223.9 360 / 25997.1 5.4 16.014.420.0
2018-Dec-03 16:30S 41°35' E 174°43'714.0
2018-Dec-03 16:00S 41°42' E 174°39'713.5
2018-Dec-03 15:30S 41°48' E 174°35'714.3
2018-Dec-03 15:00S 41°54' E 174°31'714.5
2018-Dec-03 14:30S 42°01' E 174°27'714.2
2018-Dec-03 14:00S 42°07' E 174°22'3216.3
2018-Dec-03 14:00S 42°06' E 174°18'715.2 360 / 40994.410.8 15.013.416.0
2018-Dec-03 13:30S 42°13' E 174°18'713.5
2018-Dec-03 13:00S 42°19' E 174°14'713.9
2018-Dec-03 12:31S 42°26' E 174°10'1513.5
2018-Dec-03 11:26S 42°39' E 174°02'1812.7
2018-Dec-03 10:00S 42°54' E 173°48'60 3.5 040 / 15995.9 0.3 14.514.518.0
2018-Dec-02 17:00S 43°48' E 173°12'6917.4 040 / 201003.8 2.2 14.112.418.0
2018-Dec-02 13:00S 42°54' E 174°12'   060 / 201004.610.8 16.012.716.0
Track history (hours):
 
Tides and Currents Weather Stations Pressure Air Temp Water Temp Dewpoint Dewpoint Depression Visibility Wind Speed Wind Dir Waves Ship Positions

Maasdam

Operator: Holland America Line

Last reported at 2018-Dec-12 12:40 UTC. Time now 2018-Dec-12 13:51 UTC.
Position S 39°50' E 173°49'.

MMSI: 244958000.

Date/timePositionNaut miles runAvg speedWind from/ knotsBaromVisibWave heightAir tempDewpointWater temp
2018-Dec-12 12:40S 39°50' E 173°49'316.9
2018-Dec-12 12:31S 39°53' E 173°50'917.1
2018-Dec-12 12:00S 40°00' E 173°55'917.1
2018-Dec-12 11:31S 40°08' E 173°59'917.2
2018-Dec-12 11:01S 40°16' E 174°04'917.4
2018-Dec-12 10:31S 40°24' E 174°09'917.2
2018-Dec-12 10:01S 40°32' E 174°13'917.5
2018-Dec-12 09:31S 40°40' E 174°18'917.4
2018-Dec-12 09:01S 40°48' E 174°23'157.4
2018-Dec-12 09:00S 40°48' E 174°24'815.9 300 / 91013.110.8 16.714.320.0
2018-Dec-12 08:31S 40°55' E 174°27'816.9
2018-Dec-12 08:01S 41°03' E 174°32'815.5
2018-Dec-12 07:31S 41°11' E 174°33'816.6
2018-Dec-12 07:01S 41°19' E 174°33'714.6
2018-Dec-12 06:30S 41°24' E 174°39'612.7
2018-Dec-12 06:01S 41°26' E 174°48'712.0
2018-Dec-12 05:26S 41°19' E 174°51'4 8.5
2018-Dec-12 04:57S 41°16' E 174°48'0 0.0
2018-Dec-11 19:22S 41°16' E 174°47'3 7.4
2018-Dec-11 19:01S 41°17' E 174°51'713.3
2018-Dec-11 18:30S 41°23' E 174°49'4 7.6
2018-Dec-11 18:00S 41°27' E 174°49'713.7
2018-Dec-11 17:30S 41°32' E 174°55'713.3
2018-Dec-11 17:00S 41°36' E 175°02'713.6
2018-Dec-11 16:30S 41°41' E 175°09'714.0
2018-Dec-11 16:00S 41°42' E 175°18'179 8.5
2018-Dec-10 19:00S 39°24' E 177°48'3819.0 120 / 81015.6 5.4 16.314.420.0
2018-Dec-10 17:00S 38°54' E 178°18'4315.9 140 / 101014.8 5.4 17.215.320.0
2018-Dec-10 14:17S 38°13' E 178°35'1317.7
2018-Dec-10 13:33S 38°00' E 178°37'3715.3
2018-Dec-10 11:06S 37°26' E 178°17'219.1
2018-Dec-10 11:00S 37°26' E 178°15'1219.8
2018-Dec-10 10:25S 37°25' E 178°00'1023.6
2018-Dec-10 10:00S 37°24' E 177°48'1 8.0 070 / 221013.910.8 18.515.723.0
2018-Dec-10 09:53S 37°25' E 177°48'719.1
2018-Dec-10 09:30S 37°25' E 177°38'1019.1
2018-Dec-10 09:00S 37°24' E 177°27'918.7
2018-Dec-10 08:30S 37°23' E 177°15'918.5
2018-Dec-10 08:00S 37°23' E 177°03'1019.0
2018-Dec-10 07:30S 37°25' E 176°51'1019.3
2018-Dec-10 07:00S 37°27' E 176°39'918.9
2018-Dec-10 06:30S 37°29' E 176°28'918.0
2018-Dec-10 06:00S 37°32' E 176°17'714.1
2018-Dec-10 05:30S 37°37' E 176°11'2 3.6
2018-Dec-10 04:58S 37°39' E 176°11'0 0.0
2018-Dec-10 04:28S 37°39' E 176°11'0 0.0
2018-Dec-10 03:58S 37°39' E 176°11'0 0.0
2018-Dec-10 03:28S 37°39' E 176°11'0 0.0
2018-Dec-10 02:28S 37°39' E 176°11'0 0.0
2018-Dec-10 01:58S 37°39' E 176°11'0 0.0
2018-Dec-10 01:28S 37°39' E 176°11'0 0.0
2018-Dec-10 00:58S 37°39' E 176°11'0 0.0
2018-Dec-10 00:28S 37°39' E 176°11'0 0.0
2018-Dec-09 23:58S 37°39' E 176°11'0 0.0
2018-Dec-09 23:28S 37°39' E 176°11'0 0.0
2018-Dec-09 22:58S 37°39' E 176°11'0 0.0
2018-Dec-09 22:28S 37°39' E 176°11'0 0.0
2018-Dec-09 21:58S 37°39' E 176°11'0 0.0
2018-Dec-09 21:28S 37°39' E 176°11'0 0.0
2018-Dec-09 20:58S 37°39' E 176°11'0 0.0
2018-Dec-09 20:28S 37°39' E 176°11'0 0.0
2018-Dec-09 19:58S 37°39' E 176°11'0 0.0
2018-Dec-09 19:28S 37°39' E 176°11'0 0.0
2018-Dec-09 18:58S 37°39' E 176°11'0 0.0
2018-Dec-09 18:28S 37°39' E 176°11'0 0.0
2018-Dec-09 17:58S 37°39' E 176°11'0 0.0
2018-Dec-09 17:28S 37°39' E 176°11'0 0.0
2018-Dec-09 16:58S 37°39' E 176°11'0 0.0
2018-Dec-09 16:28S 37°39' E 176°11'0 0.0
2018-Dec-09 15:58S 37°39' E 176°11'0 0.0
2018-Dec-09 15:28S 37°39' E 176°11'0 0.0
2018-Dec-09 14:58S 37°39' E 176°11'0 0.0
2018-Dec-09 14:28S 37°39' E 176°11'0 0.0
2018-Dec-09 13:58S 37°39' E 176°11'0 0.0
2018-Dec-09 13:28S 37°39' E 176°11'0 0.0
2018-Dec-09 12:58S 37°39' E 176°11'0 0.0
2018-Dec-09 12:28S 37°39' E 176°11'0 0.0
2018-Dec-09 11:58S 37°39' E 176°11'0 0.0
2018-Dec-09 11:28S 37°39' E 176°11'0 0.0
2018-Dec-09 10:58S 37°39' E 176°11'0 0.0
2018-Dec-09 10:28S 37°39' E 176°11'0 0.0
2018-Dec-09 09:58S 37°39' E 176°11'0 0.0
2018-Dec-09 09:28S 37°39' E 176°11'0 0.0
2018-Dec-09 08:58S 37°39' E 176°11'0 0.0
2018-Dec-09 08:28S 37°39' E 176°11'0 0.0
2018-Dec-09 07:58S 37°39' E 176°11'0 0.0
2018-Dec-09 07:28S 37°39' E 176°11'0 0.0
2018-Dec-09 06:58S 37°39' E 176°11'0 0.0
2018-Dec-09 06:28S 37°39' E 176°11'0 0.0
2018-Dec-09 05:58S 37°39' E 176°11'0 0.0
2018-Dec-09 05:28S 37°39' E 176°11'0 0.0
2018-Dec-09 04:58S 37°39' E 176°11'0 0.0
2018-Dec-09 04:28S 37°39' E 176°11'0 0.0
2018-Dec-09 03:58S 37°39' E 176°11'0 0.0
2018-Dec-09 03:31S 37°39' E 176°11'0 0.0
2018-Dec-09 03:01S 37°39' E 176°11'0 0.0
2018-Dec-09 02:30S 37°39' E 176°11'0 0.0
2018-Dec-09 02:00S 37°39' E 176°11'0 0.0
2018-Dec-09 01:31S 37°39' E 176°11'0 0.0
2018-Dec-09 01:01S 37°39' E 176°11'0 0.0
2018-Dec-09 00:31S 37°39' E 176°11'0 0.0
2018-Dec-09 00:01S 37°39' E 176°11'0 0.0
2018-Dec-08 23:31S 37°39' E 176°11'0 0.0
2018-Dec-08 23:01S 37°39' E 176°11'0 0.0
2018-Dec-08 22:31S 37°39' E 176°11'0 0.0
2018-Dec-08 22:01S 37°39' E 176°11'0 0.0
2018-Dec-08 21:31S 37°39' E 176°11'0 0.0
2018-Dec-08 21:01S 37°39' E 176°11'0 0.0
2018-Dec-08 20:31S 37°39' E 176°11'0 0.0
2018-Dec-08 20:00S 37°39' E 176°11'0 0.0
2018-Dec-08 19:31S 37°39' E 176°11'0 0.0
2018-Dec-08 19:00S 37°39' E 176°11'0 0.0
2018-Dec-08 18:30S 37°39' E 176°11'0 0.0
2018-Dec-08 18:01S 37°39' E 176°11'0 0.0
2018-Dec-08 17:30S 37°39' E 176°11'0 0.0
2018-Dec-08 17:01S 37°39' E 176°11'0 0.0
2018-Dec-08 16:30S 37°39' E 176°11'0 0.1
2018-Dec-08 16:01S 37°39' E 176°11'3 5.7
2018-Dec-08 15:31S 37°36' E 176°11'4 8.1
2018-Dec-08 15:00S 37°32' E 176°12'714.5
2018-Dec-08 14:30S 37°24' E 176°11'714.7
2018-Dec-08 14:00S 37°17' E 176°11'714.4
2018-Dec-08 13:30S 37°10' E 176°12'814.8
2018-Dec-08 13:00S 37°02' E 176°12'814.7
2018-Dec-08 12:29S 36°55' E 176°12'714.7
2018-Dec-08 11:59S 36°48' E 176°09'714.6
2018-Dec-08 11:29S 36°41' E 176°06'714.6
2018-Dec-08 11:00S 36°35' E 176°02'814.5
2018-Dec-08 10:26S 36°31' E 175°53'1315.5
2018-Dec-08 09:36S 36°27' E 175°38'1119.1
2018-Dec-08 09:00S 36°24' E 175°24'2010.1 230 / 281020.210.8 17.312.822.0
2018-Dec-08 07:00S 36°30' E 175°00'520.2 200 / 181021.110.8 18.513.122.0
2018-Dec-08 06:46S 36°33' E 175°04'3 9.8
2018-Dec-08 06:30S 36°34' E 175°02'5 9.8
2018-Dec-08 06:00S 36°37' E 174°57'9 9.8
2018-Dec-08 05:02S 36°45' E 174°50'013.8
2018-Dec-08 05:01S 36°45' E 174°50'510.2
2018-Dec-08 04:31S 36°50' E 174°48'2 2.9
2018-Dec-08 03:58S 36°51' E 174°46'0 0.0
2018-Dec-08 03:28S 36°51' E 174°46'0 0.0
2018-Dec-08 02:58S 36°51' E 174°46'0 0.0
2018-Dec-08 02:28S 36°51' E 174°46'0 0.0
2018-Dec-08 01:58S 36°51' E 174°46'0 0.0
2018-Dec-08 01:28S 36°51' E 174°46'0 0.0
2018-Dec-08 00:58S 36°51' E 174°46'0 0.0
2018-Dec-08 00:28S 36°51' E 174°46'0 0.0
2018-Dec-07 23:58S 36°51' E 174°46'0 0.0
2018-Dec-07 23:28S 36°51' E 174°46'0 0.0
2018-Dec-07 22:58S 36°51' E 174°46'0 0.0
2018-Dec-07 22:28S 36°51' E 174°46'0 0.0
2018-Dec-07 21:58S 36°51' E 174°46'0 0.0
2018-Dec-07 21:28S 36°51' E 174°46'0 0.0
2018-Dec-07 20:58S 36°51' E 174°46'0 0.0
2018-Dec-07 20:22S 36°51' E 174°46'0 0.0
2018-Dec-07 19:58S 36°51' E 174°46'0 0.0
2018-Dec-07 19:28S 36°51' E 174°46'0 0.0
2018-Dec-07 18:58S 36°51' E 174°46'0 0.0
2018-Dec-07 18:28S 36°51' E 174°46'0 0.0
2018-Dec-07 17:58S 36°51' E 174°46'0 0.0
2018-Dec-07 17:30S 36°51' E 174°46'2 3.9
2018-Dec-07 17:00S 36°50' E 174°49'711.1
2018-Dec-07 16:21S 36°43' E 174°52'10 7.8
2018-Dec-07 15:03S 36°36' E 174°60'1 7.5
2018-Dec-07 14:58S 36°35' E 175°00'68 6.8
2018-Dec-07 05:00S 36°48' E 176°24'920.7 010 / 51020.110.8 17.0 5.620.0
2018-Dec-07 04:33S 36°55' E 176°31'3 8.3
2018-Dec-07 04:09S 36°57' E 176°34'1 8.3
2018-Dec-07 04:00S 36°58' E 176°35'6422.6
2018-Dec-07 04:00S 36°54' E 176°30'1415.2 030 / 21020.310.8 17.0 5.620.0
2018-Dec-07 03:06S 37°03' E 176°42'5 8.3
2018-Dec-07 02:30S 37°07' E 176°47'4 8.4
2018-Dec-07 02:01S 37°09' E 176°51'4 8.4
2018-Dec-07 01:30S 37°12' E 176°55'4 8.4
2018-Dec-07 01:00S 37°15' E 176°58'4 8.4
2018-Dec-07 00:30S 37°18' E 177°02'4 8.6
2018-Dec-07 00:00S 37°21' E 177°06'4 8.6
2018-Dec-06 23:30S 37°24' E 177°10'4 8.5
2018-Dec-06 23:00S 37°28' E 177°13'4 9.0
2018-Dec-06 22:31S 37°32' E 177°14'4 8.0
2018-Dec-06 22:01S 37°32' E 177°19'4 8.3
2018-Dec-06 21:31S 37°31' E 177°24'4 8.4
2018-Dec-06 21:01S 37°30' E 177°29'4 8.6
2018-Dec-06 20:30S 37°30' E 177°34'4 8.7
2018-Dec-06 20:01S 37°29' E 177°40'4 8.6
2018-Dec-06 19:30S 37°28' E 177°45'5 9.3
2018-Dec-06 19:00S 37°24' E 177°48'518.6 200 / 151017.010.8 16.214.420.0
2018-Dec-06 18:42S 37°27' E 177°54'2 8.1
2018-Dec-06 18:30S 37°27' E 177°56'3 6.2
2018-Dec-06 18:00S 37°24' E 177°54'778.2 200 / 151016.4 17.215.920.0
2018-Dec-06 17:54S 37°26' E 178°02'3 8.2
2018-Dec-06 17:30S 37°26' E 178°06'5 7.6
2018-Dec-06 16:47S 37°26' E 178°13'2 7.1
2018-Dec-06 16:30S 37°26' E 178°15'41 7.6
2018-Dec-06 11:07S 38°01' E 178°43'13 8.3
2018-Dec-06 09:35S 38°13' E 178°40'39 8.5
2018-Dec-06 05:00S 38°42' E 178°06'6 0.5 260 / 151009.510.8 18.011.218.0
2018-Dec-05 17:00S 38°48' E 178°06'15 7.6 330 / 201008.010.8 16.314.220.0
2018-Dec-05 15:00S 39°00' E 178°18'19 9.3 290 / 271006.910.8 16.012.719.0
2018-Dec-05 13:00S 39°18' E 178°12'1818.4 290 / 351006.810.8 18.014.819.0
2018-Dec-05 12:00S 39°30' E 177°54'156 5.6 310 / 241007.010.8 19.015.918.0
2018-Dec-04 08:00S 41°30' E 175°42'1716.4 320 / 48995.610.8 17.4 9.118.0
2018-Dec-04 06:59S 41°40' E 175°24'817.5
2018-Dec-04 06:30S 41°42' E 175°13'816.8
2018-Dec-04 06:00S 41°37' E 175°04'917.9
2018-Dec-04 05:30S 41°31' E 174°55'816.4
2018-Dec-04 05:00S 41°25' E 174°48'150.5
2018-Dec-04 05:00S 41°24' E 174°48'712.1 020 / 27997.310.8 18.011.316.0
2018-Dec-04 04:27S 41°18' E 174°51'3 7.4
2018-Dec-04 04:00S 41°16' E 174°47'0 0.0
2018-Dec-04 03:28S 41°16' E 174°47'0 0.0
2018-Dec-04 02:55S 41°16' E 174°47'0 0.0
2018-Dec-04 02:28S 41°16' E 174°47'0 0.0
2018-Dec-04 01:58S 41°16' E 174°47'0 0.0
2018-Dec-04 01:28S 41°16' E 174°47'0 0.0
2018-Dec-04 00:55S 41°16' E 174°47'0 0.0
2018-Dec-04 00:22S 41°16' E 174°47'0 0.0
2018-Dec-03 23:58S 41°16' E 174°47'0 0.0
2018-Dec-03 23:28S 41°16' E 174°47'0 0.0
2018-Dec-03 22:43S 41°16' E 174°47'0 0.0
2018-Dec-03 22:28S 41°16' E 174°47'0 0.0
2018-Dec-03 21:52S 41°16' E 174°47'0 0.0
2018-Dec-03 21:28S 41°16' E 174°47'0 0.0
2018-Dec-03 20:52S 41°16' E 174°47'0 0.0
2018-Dec-03 20:28S 41°16' E 174°47'0 0.0
2018-Dec-03 19:58S 41°16' E 174°47'0 0.0
2018-Dec-03 19:28S 41°16' E 174°47'0 0.0
2018-Dec-03 18:58S 41°16' E 174°47'0 0.2
2018-Dec-03 18:30S 41°16' E 174°47'6 7.4
2018-Dec-03 17:39S 41°22' E 174°50'211.9
2018-Dec-03 17:30S 41°23' E 174°49'510.8
2018-Dec-03 17:01S 41°29' E 174°47'6356.4
2018-Dec-03 17:00S 41°24' E 174°42'1223.9 360 / 25997.1 5.4 16.014.420.0
2018-Dec-03 16:30S 41°35' E 174°43'714.0
2018-Dec-03 16:00S 41°42' E 174°39'713.5
2018-Dec-03 15:30S 41°48' E 174°35'714.3
2018-Dec-03 15:00S 41°54' E 174°31'714.5
2018-Dec-03 14:30S 42°01' E 174°27'714.2
2018-Dec-03 14:00S 42°07' E 174°22'3216.3
2018-Dec-03 14:00S 42°06' E 174°18'715.2 360 / 40994.410.8 15.013.416.0
2018-Dec-03 13:30S 42°13' E 174°18'713.5
2018-Dec-03 13:00S 42°19' E 174°14'713.9
2018-Dec-03 12:31S 42°26' E 174°10'1513.5
2018-Dec-03 11:26S 42°39' E 174°02'1812.7
2018-Dec-03 10:00S 42°54' E 173°48'60 3.5 040 / 15995.9 0.3 14.514.518.0
2018-Dec-02 17:00S 43°48' E 173°12'6917.4 040 / 201003.8 2.2 14.112.418.0
2018-Dec-02 13:00S 42°54' E 174°12'   060 / 201004.610.8 16.012.716.0

Dump ship's entire track history